createdAt,value
2023-05-15T00:00:31.894Z,22.30
2023-05-15T00:02:58.950Z,25.33
2023-05-15T00:05:28.016Z,25.00
2023-05-15T00:07:58.756Z,22.93
2023-05-15T00:10:28.751Z,23.53
2023-05-15T00:12:55.795Z,20.80
2023-05-15T00:15:24.967Z,25.67
2023-05-15T00:17:55.513Z,23.93
2023-05-15T00:20:23.695Z,24.20
2023-05-15T00:22:53.789Z,30.43
2023-05-15T00:25:24.098Z,29.53
2023-05-15T00:27:54.193Z,35.97
2023-05-15T00:30:24.377Z,31.93
2023-05-15T00:32:54.465Z,28.47
2023-05-15T00:35:24.766Z,40.13
2023-05-15T00:37:53.986Z,37.83
2023-05-15T00:40:25.252Z,34.97
2023-05-15T00:42:54.570Z,37.90
2023-05-15T00:45:24.914Z,34.07
2023-05-15T00:47:53.219Z,34.70
2023-05-15T00:50:20.910Z,37.97
2023-05-15T00:52:50.613Z,44.87
2023-05-15T00:55:18.732Z,47.63
2023-05-15T00:57:47.917Z,44.20
2023-05-15T01:00:18.628Z,51.13
2023-05-15T01:02:48.792Z,51.90
2023-05-15T01:05:19.076Z,48.20
2023-05-15T01:08:23.846Z,51.67
2023-05-15T01:10:53.111Z,52.77
2023-05-15T01:13:32.364Z,54.50
2023-05-15T01:15:59.833Z,53.57
2023-05-15T01:18:32.646Z,49.43
2023-05-15T01:21:05.735Z,48.07
2023-05-15T01:23:51.426Z,50.33
2023-05-15T01:26:35.208Z,49.87
2023-05-15T01:29:38.969Z,53.03
2023-05-15T01:32:29.252Z,56.30
2023-05-15T01:35:33.662Z,54.57
2023-05-15T01:38:27.816Z,55.23
2023-05-15T01:41:21.259Z,48.43
2023-05-15T01:44:11.945Z,46.70
2023-05-15T01:46:45.445Z,48.63
2023-05-15T01:49:14.095Z,49.10
2023-05-15T01:51:44.540Z,48.83
2023-05-15T01:54:15.370Z,46.80
2023-05-15T01:56:45.366Z,47.17
2023-05-15T01:59:18.031Z,54.00
2023-05-15T02:01:47.872Z,55.93
2023-05-15T02:04:15.605Z,53.80
2023-05-15T02:06:42.956Z,54.80
2023-05-15T02:09:13.374Z,59.10
2023-05-15T02:11:47.153Z,56.13
2023-05-15T02:14:17.632Z,60.20
2023-05-15T02:16:46.260Z,61.83
2023-05-15T02:19:16.472Z,57.93
2023-05-15T02:21:46.637Z,63.13
2023-05-15T02:24:15.690Z,58.23
2023-05-15T02:27:19.773Z,63.10
2023-05-15T02:30:14.548Z,61.23
2023-05-15T02:32:59.912Z,61.83
2023-05-15T02:35:42.392Z,63.73
2023-05-15T02:38:18.973Z,58.57
2023-05-15T02:40:50.271Z,51.07
2023-05-15T02:43:19.497Z,61.90
2023-05-15T02:45:48.854Z,57.93
2023-05-15T02:48:17.354Z,62.33
2023-05-15T02:50:46.691Z,62.57
2023-05-15T02:53:16.268Z,63.93
2023-05-15T02:56:05.898Z,64.70
2023-05-15T02:58:47.486Z,64.00
2023-05-15T03:01:20.111Z,73.57
2023-05-15T03:03:54.047Z,67.93
2023-05-15T03:06:26.367Z,69.07
2023-05-15T03:08:55.408Z,78.53
2023-05-15T03:11:25.446Z,76.83
2023-05-15T03:13:55.514Z,78.30
2023-05-15T03:16:22.640Z,76.50
2023-05-15T03:18:50.864Z,77.47
2023-05-15T03:21:18.496Z,70.83
2023-05-15T03:23:45.610Z,80.93
2023-05-15T03:26:12.572Z,78.67
2023-05-15T03:28:41.738Z,85.77
2023-05-15T03:31:09.375Z,83.77
2023-05-15T03:33:40.710Z,80.53
2023-05-15T03:36:08.035Z,77.83
2023-05-15T03:38:38.235Z,76.43
2023-05-15T03:41:11.500Z,78.73
2023-05-15T03:43:41.557Z,84.40
2023-05-15T03:46:12.696Z,103.43
2023-05-15T03:48:40.747Z,94.63
2023-05-15T03:51:07.728Z,95.37
2023-05-15T03:53:34.988Z,105.17
2023-05-15T03:56:02.196Z,109.70
2023-05-15T03:58:32.128Z,104.33
2023-05-15T04:01:00.172Z,99.33
2023-05-15T04:03:31.145Z,106.77
2023-05-15T04:06:00.182Z,100.50
2023-05-15T04:08:27.179Z,104.30
2023-05-15T04:10:55.126Z,94.00
2023-05-15T04:13:24.248Z,83.97
2023-05-15T04:15:51.678Z,84.43
2023-05-15T04:18:18.640Z,89.37
2023-05-15T04:20:46.614Z,91.13
2023-05-15T04:23:16.718Z,87.40
2023-05-15T04:25:46.725Z,87.17
2023-05-15T04:28:14.241Z,91.80
2023-05-15T04:30:41.744Z,90.10
2023-05-15T04:33:11.877Z,93.27
2023-05-15T04:35:39.143Z,89.03
2023-05-15T04:38:09.171Z,90.93
2023-05-15T04:40:36.103Z,91.57
2023-05-15T04:43:04.211Z,95.03
2023-05-15T04:45:31.286Z,97.00
2023-05-15T04:47:58.304Z,93.73
2023-05-15T04:50:26.510Z,93.33
2023-05-15T04:52:56.793Z,95.97
2023-05-15T04:55:26.106Z,102.17
2023-05-15T04:57:55.573Z,95.37
2023-05-15T05:00:25.256Z,94.17
2023-05-15T05:02:54.611Z,92.33
2023-05-15T05:05:26.585Z,98.73
2023-05-15T05:07:58.296Z,96.50
2023-05-15T05:10:32.717Z,94.03
2023-05-15T05:13:03.434Z,88.30
2023-05-15T05:15:35.724Z,86.50
2023-05-15T05:18:12.404Z,100.10
2023-05-15T05:20:40.924Z,118.03
2023-05-15T05:23:08.918Z,142.80
2023-05-15T05:25:38.895Z,147.57
2023-05-15T05:28:07.972Z,145.77
2023-05-15T05:30:36.960Z,141.60
2023-05-15T05:33:10.266Z,137.17
2023-05-15T05:35:37.339Z,141.80
2023-05-15T05:38:07.432Z,138.20
2023-05-15T05:40:35.509Z,138.77
2023-05-15T05:43:02.929Z,131.77
2023-05-15T05:45:32.059Z,131.33
2023-05-15T05:48:01.116Z,122.40
2023-05-15T05:50:29.249Z,142.60
2023-05-15T05:52:56.336Z,137.80
2023-05-15T05:55:26.658Z,129.63
2023-05-15T05:57:54.813Z,139.33
2023-05-15T06:00:22.934Z,132.60
2023-05-15T06:02:57.194Z,136.67
2023-05-15T06:05:27.594Z,133.33
2023-05-15T06:07:56.562Z,128.63
2023-05-15T06:10:27.177Z,129.93
2023-05-15T06:12:54.325Z,134.93
2023-05-15T06:15:24.652Z,135.00
2023-05-15T06:17:52.925Z,127.57
2023-05-15T06:20:20.103Z,127.70
2023-05-15T06:22:48.076Z,120.90
2023-05-15T06:25:15.520Z,128.20
2023-05-15T06:27:43.644Z,121.67
2023-05-15T06:30:12.294Z,117.87
2023-05-15T06:32:40.227Z,118.43
2023-05-15T06:35:10.751Z,127.43
2023-05-15T06:37:39.291Z,118.47
2023-05-15T06:40:07.071Z,134.17
2023-05-15T06:42:35.072Z,109.03
2023-05-15T06:45:02.155Z,126.03
2023-05-15T06:47:29.139Z,120.47
2023-05-15T06:49:59.304Z,112.13
2023-05-15T06:52:27.415Z,118.50
2023-05-15T06:54:56.439Z,120.30
2023-05-15T06:57:24.442Z,121.90
2023-05-15T06:59:52.604Z,125.33
2023-05-15T07:02:22.817Z,150.90
2023-05-15T07:04:53.073Z,186.17
2023-05-15T07:07:23.177Z,130.80
2023-05-15T07:09:51.194Z,114.60
2023-05-15T07:12:18.276Z,131.33
2023-05-15T07:14:47.359Z,133.97
2023-05-15T07:17:17.948Z,126.50
2023-05-15T07:19:46.085Z,128.37
2023-05-15T07:22:13.022Z,138.20
2023-05-15T07:24:41.109Z,143.97
2023-05-15T07:27:11.155Z,136.90
2023-05-15T07:29:41.277Z,119.47
2023-05-15T07:32:11.566Z,127.67
2023-05-15T07:34:38.543Z,133.83
2023-05-15T07:37:08.673Z,125.53
2023-05-15T07:39:36.883Z,132.87
2023-05-15T07:42:07.232Z,124.53
2023-05-15T07:44:35.349Z,144.37
2023-05-15T07:47:04.381Z,178.27
2023-05-15T07:49:32.629Z,147.03
2023-05-15T07:52:02.794Z,126.27
2023-05-15T07:54:33.080Z,124.87
2023-05-15T07:57:03.525Z,126.07
2023-05-15T07:59:33.984Z,130.77
2023-05-15T08:02:01.038Z,127.43
2023-05-15T08:04:31.231Z,122.30
2023-05-15T08:06:58.791Z,119.97
2023-05-15T08:09:25.760Z,124.53
2023-05-15T08:11:56.506Z,124.00
2023-05-15T08:14:24.799Z,133.50
2023-05-15T08:16:54.772Z,124.60
2023-05-15T08:19:24.039Z,147.77
2023-05-15T08:21:52.511Z,135.43
2023-05-15T08:24:20.547Z,130.73
2023-05-15T08:26:47.586Z,141.43
2023-05-15T08:29:14.943Z,137.97
2023-05-15T08:31:44.033Z,138.27
2023-05-15T08:34:13.122Z,130.83
2023-05-15T08:36:42.133Z,125.93
2023-05-15T08:39:09.582Z,140.57
2023-05-15T08:42:10.464Z,123.90
2023-05-15T08:44:37.979Z,131.37
2023-05-15T08:47:06.442Z,135.60
2023-05-15T08:50:05.004Z,131.10
2023-05-15T08:52:33.700Z,136.30
2023-05-15T08:55:03.975Z,125.03
2023-05-15T08:57:33.111Z,135.50
2023-05-15T09:00:03.302Z,132.10
2023-05-15T09:02:30.457Z,125.20
2023-05-15T09:04:57.466Z,130.20
2023-05-15T09:07:27.710Z,131.00
2023-05-15T09:09:57.277Z,106.90
2023-05-15T09:12:26.164Z,104.50
2023-05-15T09:15:28.759Z,91.13
2023-05-15T09:17:58.390Z,89.00
2023-05-15T09:20:29.671Z,80.60
2023-05-15T09:23:01.835Z,60.73
2023-05-15T09:25:44.985Z,54.73
2023-05-15T09:28:34.410Z,52.20
2023-05-15T09:31:05.513Z,48.20
2023-05-15T09:33:42.475Z,38.73
2023-05-15T09:36:11.702Z,20.27
2023-05-15T09:38:43.347Z,16.67
2023-05-15T09:41:11.912Z,16.47
2023-05-15T09:43:40.848Z,14.17
2023-05-15T09:46:08.815Z,8.90
2023-05-15T09:48:38.568Z,13.90
2023-05-15T09:51:19.653Z,11.37
2023-05-15T09:53:55.447Z,11.83
2023-05-15T09:56:26.320Z,10.47
2023-05-15T09:58:59.866Z,16.17
2023-05-15T10:01:29.992Z,11.60
2023-05-15T10:04:27.613Z,15.80
2023-05-15T10:06:56.682Z,11.03
2023-05-15T10:09:31.290Z,14.40
2023-05-15T10:12:00.248Z,7.00
2023-05-15T10:14:30.311Z,9.63
2023-05-15T10:16:57.928Z,7.70
2023-05-15T10:19:28.630Z,12.90
2023-05-15T10:21:58.840Z,15.57
2023-05-15T10:24:30.121Z,12.77
2023-05-15T10:26:58.892Z,10.73
2023-05-15T10:29:47.092Z,6.37
2023-05-15T10:32:18.979Z,9.83
2023-05-15T10:34:46.610Z,9.10
2023-05-15T10:37:15.118Z,10.67
2023-05-15T10:39:43.636Z,10.57
2023-05-15T10:42:12.936Z,15.10
2023-05-15T10:44:42.218Z,11.90
2023-05-15T10:47:12.402Z,14.57
2023-05-15T10:49:41.601Z,13.77
2023-05-15T10:52:10.800Z,14.67
2023-05-15T10:54:41.119Z,20.27
2023-05-15T10:57:09.326Z,13.97
2023-05-15T10:59:41.629Z,8.30
2023-05-15T11:02:31.654Z,17.37
2023-05-15T11:05:02.564Z,12.43
2023-05-15T11:07:31.662Z,12.03
2023-05-15T11:09:58.673Z,12.13
2023-05-15T11:12:46.715Z,12.03
2023-05-15T11:15:16.296Z,13.00
2023-05-15T11:18:03.962Z,17.47
2023-05-15T11:20:49.643Z,10.80
2023-05-15T11:23:26.853Z,12.70
2023-05-15T11:26:01.615Z,15.10
2023-05-15T11:28:31.514Z,12.47
2023-05-15T11:31:07.151Z,13.90
2023-05-15T11:33:38.134Z,10.43
2023-05-15T11:36:06.688Z,12.97
2023-05-15T11:38:41.061Z,13.60
2023-05-15T11:41:31.830Z,12.63
2023-05-15T11:44:01.780Z,14.43
2023-05-15T11:46:29.643Z,10.67
2023-05-15T11:49:00.218Z,19.53
2023-05-15T11:51:30.247Z,16.33
2023-05-15T11:54:02.581Z,21.97
2023-05-15T11:56:32.759Z,11.67
2023-05-15T11:59:05.850Z,19.07
2023-05-15T12:01:44.122Z,9.60
2023-05-15T12:04:19.015Z,22.30
2023-05-15T12:06:49.668Z,10.83
2023-05-15T12:09:27.444Z,15.83
2023-05-15T12:11:56.305Z,17.30
2023-05-15T12:14:34.010Z,14.10
2023-05-15T12:17:07.369Z,15.97
2023-05-15T12:19:38.057Z,15.43
2023-05-15T12:22:08.726Z,15.80
2023-05-15T12:24:39.928Z,15.27
2023-05-15T12:27:10.064Z,10.63
2023-05-15T12:29:40.312Z,12.17
2023-05-15T12:32:09.905Z,15.40
2023-05-15T12:34:37.500Z,11.73
2023-05-15T12:37:06.822Z,10.77
2023-05-15T12:39:34.985Z,10.73
2023-05-15T12:42:03.685Z,11.60
2023-05-15T12:44:32.130Z,10.83
2023-05-15T12:47:00.148Z,12.00
2023-05-15T12:49:28.283Z,11.90
2023-05-15T12:51:55.489Z,10.43
2023-05-15T12:54:24.445Z,10.93
2023-05-15T12:56:54.323Z,9.37
2023-05-15T12:59:25.377Z,9.70
2023-05-15T13:01:53.616Z,13.50
2023-05-15T13:04:22.917Z,10.33
2023-05-15T13:06:53.165Z,10.53
2023-05-15T13:09:23.508Z,10.73
2023-05-15T13:11:56.601Z,9.17
2023-05-15T13:14:29.735Z,7.10
2023-05-15T13:17:02.946Z,8.67
2023-05-15T13:19:33.106Z,11.70
2023-05-15T13:22:03.253Z,9.73
2023-05-15T13:24:31.588Z,9.57
2023-05-15T13:26:59.662Z,9.43
2023-05-15T13:29:27.748Z,12.70
2023-05-15T13:31:57.796Z,7.67
2023-05-15T13:34:26.048Z,11.73
2023-05-15T13:36:56.087Z,10.77
2023-05-15T13:39:24.129Z,10.27
2023-05-15T13:41:51.258Z,7.73
2023-05-15T13:44:18.586Z,9.33
2023-05-15T13:46:46.584Z,12.93
2023-05-15T13:49:13.756Z,12.43
2023-05-15T13:51:40.827Z,7.93
2023-05-15T13:54:11.017Z,10.77
2023-05-15T13:56:38.047Z,11.03
2023-05-15T13:59:06.100Z,6.43
2023-05-15T14:01:33.084Z,8.80
2023-05-15T14:04:01.294Z,9.30
2023-05-15T14:06:28.826Z,8.30
2023-05-15T14:08:55.979Z,7.73
2023-05-15T14:11:23.286Z,10.37
2023-05-15T14:13:50.376Z,10.30
2023-05-15T14:16:17.468Z,7.13
2023-05-15T14:18:45.442Z,8.63
2023-05-15T14:21:12.626Z,9.30
2023-05-15T14:23:40.656Z,12.07
2023-05-15T14:26:08.001Z,11.73
2023-05-15T14:28:35.297Z,9.90
2023-05-15T14:31:02.350Z,8.07
2023-05-15T14:33:30.629Z,11.53
2023-05-15T14:36:01.188Z,15.87
2023-05-15T14:38:28.227Z,6.37
2023-05-15T14:40:57.576Z,12.67
2023-05-15T14:43:25.726Z,9.47
2023-05-15T14:45:52.867Z,7.83
2023-05-15T14:48:20.006Z,14.63
2023-05-15T14:50:48.098Z,9.40
2023-05-15T14:53:15.395Z,9.77
2023-05-15T14:55:42.447Z,14.53
2023-05-15T14:58:11.524Z,15.67
2023-05-15T15:00:44.584Z,13.80
2023-05-15T15:03:14.078Z,11.97
2023-05-15T15:05:52.271Z,14.87
2023-05-15T15:08:22.276Z,13.17
2023-05-15T15:10:52.455Z,12.37
2023-05-15T15:13:21.427Z,11.97
2023-05-15T15:15:49.520Z,14.40
2023-05-15T15:18:18.692Z,9.40
2023-05-15T15:20:46.872Z,11.23
2023-05-15T15:23:16.960Z,11.97
2023-05-15T15:25:44.027Z,10.27
2023-05-15T15:28:11.110Z,13.07
2023-05-15T15:30:41.169Z,13.80
2023-05-15T15:33:10.322Z,11.30
2023-05-15T15:35:37.295Z,13.57
2023-05-15T15:38:06.475Z,10.93
2023-05-15T15:40:35.670Z,16.33
2023-05-15T15:43:05.744Z,12.17
2023-05-15T15:45:32.788Z,12.50
2023-05-15T15:47:59.884Z,18.83
2023-05-15T15:50:28.078Z,16.47
2023-05-15T15:52:55.466Z,25.53
2023-05-15T15:55:22.536Z,14.87
2023-05-15T15:57:50.580Z,12.30
2023-05-15T16:00:17.944Z,13.30
2023-05-15T16:02:45.078Z,16.80
2023-05-15T16:05:13.457Z,15.87
2023-05-15T16:07:47.990Z,15.77
2023-05-15T16:10:18.263Z,16.90
2023-05-15T16:12:48.587Z,15.63
2023-05-15T16:15:23.419Z,17.80
2023-05-15T16:17:54.108Z,18.53
2023-05-15T16:20:24.061Z,20.80
2023-05-15T16:22:54.548Z,16.37
2023-05-15T16:25:21.797Z,15.83
2023-05-15T16:27:49.875Z,19.87
2023-05-15T16:30:20.070Z,19.50
2023-05-15T16:32:48.756Z,20.90
2023-05-15T16:35:15.929Z,19.13
2023-05-15T16:37:46.120Z,17.87
2023-05-15T16:40:13.445Z,14.93
2023-05-15T16:42:43.685Z,17.37
2023-05-15T16:45:14.395Z,11.00
2023-05-15T16:47:42.383Z,16.50
2023-05-15T16:50:10.116Z,15.37
2023-05-15T16:52:39.972Z,16.90
2023-05-15T16:55:10.254Z,13.47
2023-05-15T16:57:40.513Z,16.40
2023-05-15T17:00:10.347Z,16.27
2023-05-15T17:02:37.704Z,18.33
2023-05-15T17:05:08.974Z,17.17
2023-05-15T17:07:39.189Z,18.40
2023-05-15T17:10:11.087Z,15.17
2023-05-15T17:12:41.252Z,10.10
2023-05-15T17:15:09.972Z,14.63
2023-05-15T17:17:39.094Z,12.70
2023-05-15T17:20:06.714Z,16.23
2023-05-15T17:22:37.010Z,15.03
2023-05-15T17:25:04.454Z,19.13
2023-05-15T17:27:40.096Z,16.10
2023-05-15T17:30:10.662Z,17.50
2023-05-15T17:32:39.582Z,18.30
2023-05-15T17:35:08.136Z,23.63
2023-05-15T17:37:35.257Z,15.20
2023-05-15T17:40:04.585Z,17.47
2023-05-15T17:42:36.108Z,19.43
2023-05-15T17:45:03.750Z,16.60
2023-05-15T17:47:33.818Z,13.37
2023-05-15T17:50:04.051Z,15.83
2023-05-15T17:52:32.101Z,18.42
2023-05-15T17:55:01.123Z,21.67
2023-05-15T17:57:31.697Z,16.87
2023-05-15T18:00:01.767Z,10.10
2023-05-15T18:02:28.812Z,11.90
2023-05-15T18:04:57.169Z,16.53
2023-05-15T18:07:24.272Z,20.70
2023-05-15T18:09:54.301Z,22.17
2023-05-15T18:12:24.436Z,12.57
2023-05-15T18:14:51.538Z,23.30
2023-05-15T18:17:20.119Z,13.30
2023-05-15T18:19:48.208Z,20.10
2023-05-15T18:22:16.511Z,16.87
2023-05-15T18:24:46.645Z,16.73
2023-05-15T18:27:16.728Z,23.63
2023-05-15T18:29:45.616Z,19.63
2023-05-15T18:32:15.808Z,18.27
2023-05-15T18:34:42.874Z,25.30
2023-05-15T18:37:12.916Z,15.13
2023-05-15T18:39:43.069Z,17.33
2023-05-15T18:42:10.166Z,16.63
2023-05-15T18:44:37.101Z,22.43
2023-05-15T18:47:04.267Z,13.80
2023-05-15T18:49:32.288Z,21.07
2023-05-15T18:52:00.283Z,15.10
2023-05-15T18:54:27.358Z,18.60
2023-05-15T18:56:55.491Z,23.30
2023-05-15T18:59:22.830Z,16.60
2023-05-15T19:01:49.946Z,15.70
2023-05-15T19:04:18.933Z,18.90
2023-05-15T19:06:50.483Z,10.60
2023-05-15T19:09:20.842Z,17.93
2023-05-15T19:11:52.499Z,14.67
2023-05-15T19:14:19.517Z,11.97
2023-05-15T19:16:47.677Z,19.83
2023-05-15T19:19:14.874Z,15.80
2023-05-15T19:21:41.986Z,18.60
2023-05-15T19:24:12.472Z,21.47
2023-05-15T19:26:42.569Z,14.20
2023-05-15T19:29:10.761Z,21.13
2023-05-15T19:31:40.863Z,17.87
2023-05-15T19:34:07.942Z,15.10
2023-05-15T19:36:35.232Z,21.80
2023-05-15T19:39:02.236Z,19.50
2023-05-15T19:41:35.220Z,14.27
2023-05-15T19:44:02.277Z,16.37
2023-05-15T19:46:29.523Z,14.50
2023-05-15T19:48:56.683Z,17.27
2023-05-15T19:51:26.851Z,16.93
2023-05-15T19:53:59.227Z,22.37
2023-05-15T19:56:29.615Z,15.77
2023-05-15T19:59:02.800Z,15.23
2023-05-15T20:01:35.988Z,20.47
2023-05-15T20:04:05.257Z,18.37
2023-05-15T20:06:35.445Z,10.37
2023-05-15T20:09:02.426Z,21.97
2023-05-15T20:11:33.495Z,15.77
2023-05-15T20:14:03.609Z,13.07
2023-05-15T20:16:30.685Z,9.87
2023-05-15T20:18:59.973Z,19.30
2023-05-15T20:21:27.082Z,18.00
2023-05-15T20:23:56.558Z,12.87
2023-05-15T20:26:25.793Z,21.17
2023-05-15T20:28:54.866Z,15.13
2023-05-15T20:31:25.047Z,19.47
2023-05-15T20:33:57.278Z,16.90
2023-05-15T20:36:25.741Z,18.70
2023-05-15T20:38:53.112Z,22.30
2023-05-15T20:41:22.865Z,16.90
2023-05-15T20:43:50.419Z,23.37
2023-05-15T20:46:18.600Z,18.00
2023-05-15T20:48:48.995Z,14.80
2023-05-15T20:51:17.961Z,12.10
2023-05-15T20:53:46.040Z,15.97
2023-05-15T20:56:13.048Z,13.30
2023-05-15T20:58:40.065Z,11.87
2023-05-15T21:01:07.091Z,12.17
2023-05-15T21:03:36.212Z,12.83
2023-05-15T21:06:06.455Z,19.87
2023-05-15T21:08:34.538Z,13.77
2023-05-15T21:11:09.513Z,11.53
2023-05-15T21:13:37.522Z,21.03
2023-05-15T21:16:05.804Z,17.33
2023-05-15T21:18:33.953Z,17.13
2023-05-15T21:21:07.105Z,18.10
2023-05-15T21:23:38.328Z,12.63
2023-05-15T21:26:08.406Z,15.27
2023-05-15T21:28:37.466Z,15.37
2023-05-15T21:31:13.669Z,19.73
2023-05-15T21:33:43.720Z,12.73
2023-05-15T21:36:16.849Z,13.90
2023-05-15T21:38:43.844Z,13.77
2023-05-15T21:41:14.023Z,15.77
2023-05-15T21:43:43.005Z,12.47
2023-05-15T21:46:13.212Z,16.20
2023-05-15T21:48:40.185Z,10.77
2023-05-15T21:51:08.426Z,15.17
2023-05-15T21:53:35.677Z,15.93
2023-05-15T21:56:06.167Z,15.47
2023-05-15T21:58:36.266Z,10.17
2023-05-15T22:01:06.373Z,14.47
2023-05-15T22:03:34.551Z,12.57
2023-05-15T22:06:01.481Z,10.20
2023-05-15T22:08:31.811Z,17.07
2023-05-15T22:11:07.457Z,15.37
2023-05-15T22:13:36.406Z,16.00
2023-05-15T22:16:06.644Z,14.93
2023-05-15T22:18:35.790Z,15.37
2023-05-15T22:21:04.823Z,13.00
2023-05-15T22:23:32.888Z,14.30
2023-05-15T22:26:02.875Z,22.37
2023-05-15T22:28:33.016Z,18.10
2023-05-15T22:31:01.460Z,12.00
2023-05-15T22:33:31.629Z,16.30
2023-05-15T22:35:58.800Z,15.47
2023-05-15T22:38:28.296Z,15.40
2023-05-15T22:40:58.496Z,12.07
2023-05-15T22:43:27.527Z,14.30
2023-05-15T22:45:57.540Z,14.47
2023-05-15T22:48:27.777Z,10.27
2023-05-15T22:50:57.933Z,14.77
2023-05-15T22:53:28.183Z,13.37
2023-05-15T22:55:58.192Z,15.57
2023-05-15T22:58:28.250Z,10.87
2023-05-15T23:00:55.425Z,18.13
2023-05-15T23:03:25.894Z,23.93
2023-05-15T23:05:56.020Z,13.20
2023-05-15T23:08:24.398Z,16.00
2023-05-15T23:10:56.239Z,14.37
2023-05-15T23:13:26.791Z,13.17
2023-05-15T23:15:56.891Z,11.87
2023-05-15T23:18:27.049Z,16.17
2023-05-15T23:20:57.300Z,8.60
2023-05-15T23:23:27.424Z,9.13
2023-05-15T23:25:56.364Z,8.50
2023-05-15T23:28:26.478Z,12.70
2023-05-15T23:30:56.112Z,12.20
2023-05-15T23:33:26.471Z,11.10
2023-05-15T23:35:53.505Z,8.23
2023-05-15T23:38:22.419Z,5.73
2023-05-15T23:40:50.314Z,12.20
2023-05-15T23:43:18.401Z,12.90
2023-05-15T23:45:48.423Z,9.37
2023-05-15T23:48:18.013Z,11.80
2023-05-15T23:50:47.110Z,8.67
2023-05-15T23:53:17.279Z,8.57
2023-05-15T23:55:44.310Z,8.87
2023-05-15T23:58:13.326Z,9.50
